createdAt,value
2019-03-16T00:01:56.606Z,36.02
2019-03-16T00:04:15.748Z,36.00
2019-03-16T00:06:45.687Z,36.02
2019-03-16T00:09:15.349Z,36.05
2019-03-16T00:11:43.591Z,36.03
2019-03-16T00:14:13.776Z,36.04
2019-03-16T00:16:41.988Z,36.25
2019-03-16T00:19:11.192Z,36.25
2019-03-16T00:21:39.367Z,36.06
2019-03-16T00:24:09.061Z,36.07
2019-03-16T00:26:37.111Z,36.06
2019-03-16T00:29:06.817Z,36.03
2019-03-16T00:31:35.725Z,36.02
2019-03-16T00:34:05.284Z,36.02
2019-03-16T00:36:34.054Z,36.03
2019-03-16T00:39:02.113Z,36.05
2019-03-16T00:41:30.094Z,36.02
2019-03-16T00:43:58.406Z,36.02
2019-03-16T00:46:26.727Z,36.02
2019-03-16T00:48:54.751Z,36.03
2019-03-16T00:51:23.051Z,36.07
2019-03-16T00:53:52.096Z,36.05
2019-03-16T00:56:20.375Z,36.03
2019-03-16T00:58:49.676Z,35.99
2019-03-16T01:01:18.266Z,36.00
2019-03-16T01:03:47.565Z,35.96
2019-03-16T01:06:15.564Z,35.92
2019-03-16T01:08:43.581Z,35.95
2019-03-16T01:11:11.477Z,35.94
2019-03-16T01:13:39.260Z,35.87
2019-03-16T01:16:07.783Z,35.89
2019-03-16T01:18:36.564Z,35.87
2019-03-16T01:21:04.537Z,35.89
2019-03-16T01:23:32.926Z,35.92
2019-03-16T01:26:01.549Z,35.93
2019-03-16T01:28:29.486Z,35.95
2019-03-16T01:30:57.305Z,35.95
2019-03-16T01:33:25.823Z,35.99
2019-03-16T01:35:53.877Z,35.93
2019-03-16T01:38:22.445Z,35.96
2019-03-16T01:40:50.719Z,35.96
2019-03-16T01:43:18.861Z,35.92
2019-03-16T01:45:47.502Z,35.92
2019-03-16T01:48:15.552Z,35.86
2019-03-16T01:50:43.773Z,35.82
2019-03-16T01:53:12.691Z,35.82
2019-03-16T01:55:41.019Z,35.84
2019-03-16T01:58:09.547Z,35.79
2019-03-16T02:00:37.408Z,35.83
2019-03-16T02:03:05.916Z,35.82
2019-03-16T02:05:34.401Z,35.89
2019-03-16T02:08:02.233Z,35.86
2019-03-16T02:10:30.437Z,35.83
2019-03-16T02:12:58.355Z,35.84
2019-03-16T02:15:26.303Z,35.84
2019-03-16T02:17:54.522Z,35.84
2019-03-16T02:20:22.763Z,35.80
2019-03-16T02:22:50.543Z,35.80
2019-03-16T02:25:20.035Z,35.79
2019-03-16T02:27:48.418Z,35.81
2019-03-16T02:33:11.790Z,35.71
2019-03-16T02:35:25.267Z,35.69
2019-03-16T02:37:52.516Z,35.65
2019-03-16T02:40:19.902Z,35.63
2019-03-16T02:42:47.019Z,35.71
2019-03-16T02:45:14.377Z,35.75
2019-03-16T02:47:41.779Z,35.72
2019-03-16T02:50:08.856Z,35.78
2019-03-16T02:52:36.746Z,35.75
2019-03-16T02:55:04.421Z,35.74
2019-03-16T02:57:31.724Z,35.75
2019-03-16T02:59:59.138Z,35.74
2019-03-16T03:02:26.474Z,35.70
2019-03-16T03:04:54.124Z,35.79
2019-03-16T03:07:21.267Z,35.77
2019-03-16T03:09:48.955Z,35.74
2019-03-16T03:12:15.991Z,35.71
2019-03-16T03:14:43.064Z,35.67
2019-03-16T03:17:10.099Z,35.80
2019-03-16T03:19:37.678Z,35.82
2019-03-16T03:22:05.396Z,35.72
2019-03-16T03:24:33.120Z,35.71
2019-03-16T03:27:00.926Z,35.68
2019-03-16T03:29:28.811Z,35.69
2019-03-16T03:31:56.949Z,35.74
2019-03-16T03:34:24.562Z,35.76
2019-03-16T03:36:52.325Z,35.78
2019-03-16T03:39:20.091Z,35.79
2019-03-16T03:41:48.013Z,35.80
2019-03-16T03:44:16.037Z,35.76
2019-03-16T03:46:44.000Z,35.72
2019-03-16T03:49:11.738Z,35.73
2019-03-16T03:51:39.482Z,35.74
2019-03-16T03:54:07.406Z,35.76
2019-03-16T03:56:35.134Z,35.74
2019-03-16T03:59:02.961Z,35.76
2019-03-16T04:01:30.771Z,35.68
2019-03-16T04:04:13.995Z,35.62
2019-03-16T04:06:28.591Z,35.67
2019-03-16T04:08:56.707Z,35.61
2019-03-16T04:11:24.432Z,35.72
2019-03-16T04:13:53.404Z,35.75
2019-03-16T04:16:21.427Z,35.75
2019-03-16T04:18:51.666Z,35.78
2019-03-16T04:21:19.323Z,35.70
2019-03-16T04:23:47.427Z,35.68
2019-03-16T04:26:15.551Z,35.71
2019-03-16T04:28:43.150Z,35.70
2019-03-16T04:31:11.357Z,35.71
2019-03-16T04:33:39.657Z,35.70
2019-03-16T04:36:07.768Z,35.77
2019-03-16T04:38:35.724Z,35.70
2019-03-16T04:41:03.760Z,35.75
2019-03-16T04:43:31.769Z,35.66
2019-03-16T04:45:59.872Z,35.67
2019-03-16T04:48:28.051Z,35.68
2019-03-16T04:50:56.325Z,35.58
2019-03-16T04:53:26.470Z,35.67
2019-03-16T04:55:54.934Z,35.72
2019-03-16T04:58:22.694Z,35.71
2019-03-16T05:00:50.399Z,35.76
2019-03-16T05:03:19.047Z,35.74
2019-03-16T05:05:47.115Z,35.72
2019-03-16T05:08:14.761Z,35.76
2019-03-16T05:10:42.842Z,35.76
2019-03-16T05:13:10.439Z,35.83
2019-03-16T05:15:38.231Z,35.82
2019-03-16T05:18:05.947Z,35.85
2019-03-16T05:20:34.312Z,35.87
2019-03-16T05:23:02.067Z,35.81
2019-03-16T05:25:30.157Z,35.80
2019-03-16T05:27:58.725Z,35.78
2019-03-16T05:30:26.800Z,35.79
2019-03-16T05:32:55.009Z,35.88
2019-03-16T05:35:23.132Z,36.26
2019-03-16T05:37:50.899Z,36.38
2019-03-16T05:40:18.665Z,36.43
2019-03-16T05:42:47.304Z,36.45
2019-03-16T05:45:15.066Z,36.34
2019-03-16T05:47:45.117Z,36.19
2019-03-16T05:50:12.928Z,36.15
2019-03-16T05:52:40.769Z,36.07
2019-03-16T05:55:08.734Z,36.00
2019-03-16T05:57:36.654Z,36.00
2019-03-16T06:00:08.408Z,35.95
2019-03-16T06:02:35.475Z,35.90
2019-03-16T06:05:10.373Z,35.91
2019-03-16T06:07:33.940Z,35.88
2019-03-16T06:10:01.632Z,35.79
2019-03-16T06:12:31.408Z,35.90
2019-03-16T06:14:59.298Z,35.86
2019-03-16T06:17:26.875Z,35.88
2019-03-16T06:19:55.225Z,35.92
2019-03-16T06:22:23.360Z,36.00
2019-03-16T06:24:51.665Z,35.99
2019-03-16T06:27:20.285Z,36.03
2019-03-16T06:29:48.187Z,36.04
2019-03-16T06:32:15.948Z,36.04
2019-03-16T06:34:43.662Z,36.01
2019-03-16T06:37:11.793Z,36.00
2019-03-16T06:39:39.685Z,36.06
2019-03-16T06:42:07.481Z,36.07
2019-03-16T06:44:35.627Z,36.13
2019-03-16T06:47:03.361Z,36.30
2019-03-16T06:49:31.181Z,36.17
2019-03-16T06:51:59.442Z,36.18
2019-03-16T06:54:28.107Z,36.06
2019-03-16T06:56:55.930Z,36.43
2019-03-16T06:59:23.935Z,36.18
2019-03-16T07:01:54.162Z,36.14
2019-03-16T07:04:22.383Z,36.22
2019-03-16T07:06:51.374Z,36.14
2019-03-16T07:09:19.308Z,36.15
2019-03-16T07:11:51.120Z,36.40
2019-03-16T07:14:18.976Z,36.40
2019-03-16T07:16:46.636Z,36.18
2019-03-16T07:19:14.473Z,36.29
2019-03-16T07:21:42.423Z,36.18
2019-03-16T07:24:13.740Z,36.12
2019-03-16T07:26:41.836Z,35.98
2019-03-16T07:29:09.978Z,35.93
2019-03-16T07:31:37.797Z,35.94
2019-03-16T07:34:06.439Z,35.79
2019-03-16T07:36:36.052Z,35.79
2019-03-16T07:39:06.032Z,35.91
2019-03-16T07:41:34.150Z,35.90
2019-03-16T07:44:02.095Z,36.04
2019-03-16T07:46:30.773Z,36.17
2019-03-16T07:48:58.618Z,36.18
2019-03-16T07:51:26.699Z,36.20
2019-03-16T07:53:55.214Z,36.15
2019-03-16T07:56:22.993Z,36.11
2019-03-16T07:58:50.872Z,36.07
2019-03-16T08:01:19.104Z,35.99
2019-03-16T08:03:47.930Z,36.06
2019-03-16T08:06:16.149Z,35.97
2019-03-16T08:08:46.154Z,35.73
2019-03-16T08:11:13.946Z,35.72
2019-03-16T08:13:41.563Z,35.74
2019-03-16T08:16:09.681Z,35.81
2019-03-16T08:18:37.672Z,35.64
2019-03-16T08:21:05.926Z,35.73
2019-03-16T08:23:34.033Z,35.96
2019-03-16T08:26:01.932Z,35.84
2019-03-16T08:28:29.553Z,35.54
2019-03-16T08:30:57.222Z,35.54
2019-03-16T08:33:25.397Z,35.95
2019-03-16T08:35:53.485Z,35.90
2019-03-16T08:38:21.963Z,35.77
2019-03-16T08:40:50.448Z,35.74
2019-03-16T08:43:18.427Z,35.80
2019-03-16T08:45:46.430Z,35.88
2019-03-16T08:48:22.629Z,35.85
2019-03-16T08:50:44.659Z,35.97
2019-03-16T08:53:12.926Z,35.78
2019-03-16T08:55:40.791Z,35.40
2019-03-16T08:58:09.436Z,35.33
2019-03-16T09:00:37.116Z,34.93
2019-03-16T09:03:04.836Z,35.04
2019-03-16T09:05:33.506Z,34.96
2019-03-16T09:08:02.308Z,34.89
2019-03-16T09:10:30.284Z,34.79
2019-03-16T09:12:58.308Z,34.71
2019-03-16T09:15:26.503Z,34.55
2019-03-16T09:17:54.496Z,34.28
2019-03-16T09:20:22.525Z,34.19
2019-03-16T09:22:50.336Z,34.13
2019-03-16T09:25:18.069Z,34.07
2019-03-16T09:27:46.838Z,33.98
2019-03-16T09:30:14.674Z,33.88
2019-03-16T09:32:42.570Z,33.67
2019-03-16T09:35:10.355Z,33.58
2019-03-16T09:37:38.173Z,33.45
2019-03-16T09:40:06.466Z,33.59
2019-03-16T09:42:34.490Z,33.30
2019-03-16T09:45:02.184Z,33.55
2019-03-16T09:47:30.067Z,33.68
2019-03-16T09:49:58.247Z,33.74
2019-03-16T09:52:26.428Z,33.80
2019-03-16T09:54:55.874Z,33.86
2019-03-16T09:57:27.041Z,33.86
2019-03-16T09:59:55.169Z,33.98
2019-03-16T10:02:23.411Z,33.96
2019-03-16T10:04:51.397Z,34.07
2019-03-16T10:07:19.133Z,34.20
2019-03-16T10:09:47.401Z,34.14
2019-03-16T10:12:16.088Z,34.14
2019-03-16T10:14:46.846Z,34.08
2019-03-16T10:17:14.692Z,34.04
2019-03-16T10:19:42.996Z,33.87
2019-03-16T10:22:11.562Z,34.19
2019-03-16T10:24:39.587Z,34.74
2019-03-16T10:27:07.418Z,34.22
2019-03-16T10:29:35.443Z,34.62
2019-03-16T10:32:03.135Z,34.57
2019-03-16T10:34:30.881Z,34.53
2019-03-16T10:36:59.883Z,34.45
2019-03-16T10:39:29.934Z,34.51
2019-03-16T10:41:57.811Z,34.61
2019-03-16T10:44:25.595Z,34.66
2019-03-16T10:46:53.455Z,34.73
2019-03-16T10:50:59.219Z,34.70
2019-03-16T10:53:27.903Z,34.66
2019-03-16T10:55:55.969Z,34.73
2019-03-16T10:58:24.320Z,34.60
2019-03-16T11:00:52.088Z,34.33
2019-03-16T11:03:20.117Z,34.22
2019-03-16T11:05:48.250Z,34.23
2019-03-16T11:08:16.888Z,33.91
2019-03-16T11:10:45.935Z,33.79
2019-03-16T11:13:13.689Z,33.79
2019-03-16T11:15:42.013Z,34.29
2019-03-16T11:18:10.102Z,34.42
2019-03-16T11:20:38.465Z,34.36
2019-03-16T11:23:06.751Z,34.15
2019-03-16T11:25:34.690Z,34.09
2019-03-16T11:28:02.671Z,34.18
2019-03-16T11:30:30.554Z,34.49
2019-03-16T11:32:59.136Z,34.18
2019-03-16T11:35:27.397Z,33.92
2019-03-16T11:37:55.151Z,33.64
2019-03-16T11:40:23.686Z,33.37
2019-03-16T11:42:51.727Z,33.44
2019-03-16T11:45:20.115Z,33.84
2019-03-16T11:47:48.755Z,33.84
2019-03-16T11:50:17.443Z,33.11
2019-03-16T11:52:46.185Z,32.83
2019-03-16T11:55:14.318Z,32.92
2019-03-16T11:57:42.601Z,32.89
2019-03-16T12:00:10.700Z,32.72
2019-03-16T12:02:38.866Z,32.99
2019-03-16T12:05:08.813Z,33.13
2019-03-16T12:07:36.562Z,33.12
2019-03-16T12:10:05.342Z,33.12
2019-03-16T12:12:33.723Z,33.11
2019-03-16T12:15:01.631Z,32.99
2019-03-16T12:17:30.970Z,33.47
2019-03-16T12:19:59.161Z,33.84
2019-03-16T12:22:27.690Z,33.58
2019-03-16T12:24:55.431Z,33.71
2019-03-16T12:27:23.954Z,33.34
2019-03-16T12:29:51.803Z,32.61
2019-03-16T12:32:20.643Z,32.17
2019-03-16T12:34:48.846Z,31.95
2019-03-16T12:37:16.961Z,31.40
2019-03-16T12:39:44.806Z,31.78
2019-03-16T12:42:23.347Z,31.63
2019-03-16T12:44:52.445Z,31.73
2019-03-16T12:47:20.393Z,32.40
2019-03-16T12:49:49.096Z,32.48
2019-03-16T12:52:19.689Z,32.62
2019-03-16T12:54:48.222Z,32.68
2019-03-16T12:57:16.738Z,32.92
2019-03-16T12:59:47.253Z,32.83
2019-03-16T13:02:15.865Z,32.82
2019-03-16T13:04:43.833Z,32.68
2019-03-16T13:07:11.574Z,32.38
2019-03-16T13:09:42.292Z,32.21
2019-03-16T13:12:11.255Z,32.36
2019-03-16T13:14:40.045Z,32.41
2019-03-16T13:17:08.386Z,32.18
2019-03-16T13:19:36.828Z,32.34
2019-03-16T13:22:04.835Z,32.46
2019-03-16T13:24:32.650Z,32.56
2019-03-16T13:27:01.016Z,32.81
2019-03-16T13:29:29.472Z,32.94
2019-03-16T13:31:57.631Z,32.89
2019-03-16T13:34:26.107Z,32.99
2019-03-16T13:36:53.856Z,33.04
2019-03-16T13:39:22.956Z,33.10
2019-03-16T13:41:51.344Z,33.24
2019-03-16T13:44:19.524Z,33.15
2019-03-16T13:46:47.761Z,33.04
2019-03-16T13:49:15.755Z,32.99
2019-03-16T13:51:44.416Z,32.76
2019-03-16T13:54:12.508Z,32.54
2019-03-16T13:56:41.021Z,32.49
2019-03-16T13:59:08.753Z,32.30
2019-03-16T14:01:36.825Z,32.42
2019-03-16T14:04:04.737Z,32.37
2019-03-16T14:06:33.569Z,32.83
2019-03-16T14:09:02.256Z,32.94
2019-03-16T14:11:30.423Z,32.94
2019-03-16T14:13:58.408Z,32.90
2019-03-16T14:16:26.210Z,32.91
2019-03-16T14:18:54.434Z,32.98
2019-03-16T14:21:22.154Z,32.99
2019-03-16T14:23:49.887Z,32.96
2019-03-16T14:26:17.996Z,33.01
2019-03-16T14:28:45.755Z,32.94
2019-03-16T14:31:13.936Z,32.60
2019-03-16T14:33:41.710Z,32.66
2019-03-16T14:36:10.386Z,32.48
2019-03-16T14:38:38.468Z,32.64
2019-03-16T14:41:06.948Z,32.36
2019-03-16T14:43:34.760Z,32.56
2019-03-16T14:46:03.256Z,32.47
2019-03-16T14:51:15.691Z,33.19
2019-03-16T14:53:42.908Z,33.30
2019-03-16T14:56:10.012Z,33.23
2019-03-16T14:58:37.099Z,33.31
2019-03-16T15:01:05.037Z,33.21
2019-03-16T15:03:32.543Z,33.35
2019-03-16T15:06:00.037Z,33.22
2019-03-16T15:08:27.557Z,32.82
2019-03-16T15:10:55.348Z,33.01
2019-03-16T15:13:22.842Z,32.68
2019-03-16T15:15:50.110Z,32.54
2019-03-16T15:18:17.466Z,32.85
2019-03-16T15:20:44.540Z,32.77
2019-03-16T15:23:11.916Z,32.85
2019-03-16T15:25:38.982Z,32.70
2019-03-16T15:28:06.425Z,32.89
2019-03-16T15:30:33.624Z,33.31
2019-03-16T15:33:00.805Z,33.33
2019-03-16T15:35:28.183Z,33.33
2019-03-16T15:37:55.830Z,33.39
2019-03-16T15:40:23.697Z,33.41
2019-03-16T15:42:50.864Z,33.46
2019-03-16T15:45:18.111Z,33.38
2019-03-16T15:47:46.182Z,33.32
2019-03-16T15:50:13.229Z,33.41
2019-03-16T15:52:40.609Z,33.49
2019-03-16T15:55:08.048Z,33.32
2019-03-16T15:57:35.263Z,33.26
2019-03-16T16:00:02.762Z,33.03
2019-03-16T16:02:30.750Z,32.85
2019-03-16T16:04:59.095Z,32.87
2019-03-16T16:07:27.451Z,32.95
2019-03-16T16:09:55.458Z,32.81
2019-03-16T16:12:23.691Z,33.05
2019-03-16T16:14:51.745Z,33.35
2019-03-16T16:17:19.534Z,33.54
2019-03-16T16:19:48.058Z,33.55
2019-03-16T16:22:17.319Z,33.58
2019-03-16T16:24:45.239Z,33.66
2019-03-16T16:27:13.400Z,33.56
2019-03-16T16:29:41.448Z,33.67
2019-03-16T16:32:09.262Z,33.73
2019-03-16T16:34:37.652Z,33.67
2019-03-16T16:37:05.549Z,33.63
2019-03-16T16:39:34.081Z,33.49
2019-03-16T16:42:01.755Z,33.47
2019-03-16T16:44:29.930Z,33.41
2019-03-16T16:46:57.618Z,33.39
2019-03-16T16:49:25.339Z,33.32
2019-03-16T16:51:53.532Z,33.44
2019-03-16T16:54:21.246Z,33.20
2019-03-16T16:56:49.177Z,33.62
2019-03-16T16:59:16.861Z,33.79
2019-03-16T17:01:44.671Z,33.85
2019-03-16T17:04:12.487Z,33.94
2019-03-16T17:06:40.080Z,33.96
2019-03-16T17:09:08.346Z,33.99
2019-03-16T17:11:36.430Z,34.05
2019-03-16T17:14:04.109Z,34.06
2019-03-16T17:16:31.826Z,34.09
2019-03-16T17:19:00.638Z,34.10
2019-03-16T17:21:28.858Z,34.06
2019-03-16T17:23:56.905Z,33.95
2019-03-16T17:26:24.888Z,33.89
2019-03-16T17:28:52.680Z,33.78
2019-03-16T17:31:20.302Z,33.74
2019-03-16T17:33:48.724Z,33.73
2019-03-16T17:36:16.611Z,33.70
2019-03-16T17:38:44.680Z,34.13
2019-03-16T17:41:12.718Z,34.31
2019-03-16T17:43:40.529Z,34.48
2019-03-16T17:46:09.179Z,34.48
2019-03-16T17:48:38.282Z,34.52
2019-03-16T17:51:06.347Z,34.52
2019-03-16T17:53:34.258Z,34.61
2019-03-16T17:56:03.391Z,34.49
2019-03-16T17:58:31.152Z,34.49
2019-03-16T18:00:59.136Z,34.70
2019-03-16T18:03:27.353Z,34.72
2019-03-16T18:05:55.285Z,34.51
2019-03-16T18:08:23.804Z,34.65
2019-03-16T18:10:51.714Z,34.44
2019-03-16T18:13:20.390Z,34.45
2019-03-16T18:15:48.582Z,34.45
2019-03-16T18:18:16.291Z,34.21
2019-03-16T18:20:44.061Z,34.57
2019-03-16T18:23:12.380Z,34.74
2019-03-16T18:25:41.921Z,35.07
2019-03-16T18:28:09.709Z,35.17
2019-03-16T18:30:37.519Z,35.27
2019-03-16T18:33:05.378Z,35.26
2019-03-16T18:35:33.582Z,35.44
2019-03-16T18:38:01.474Z,35.41
2019-03-16T18:40:29.279Z,35.10
2019-03-16T18:42:58.367Z,35.09
2019-03-16T18:45:26.248Z,35.13
2019-03-16T18:47:53.943Z,35.00
2019-03-16T18:50:23.090Z,34.78
2019-03-16T18:52:50.911Z,34.66
2019-03-16T18:55:18.594Z,34.74
2019-03-16T18:57:46.515Z,34.80
2019-03-16T19:00:14.437Z,34.64
2019-03-16T19:02:42.192Z,34.70
2019-03-16T19:05:11.448Z,34.95
2019-03-16T19:07:39.569Z,35.08
2019-03-16T19:10:09.133Z,35.12
2019-03-16T19:12:37.149Z,35.14
2019-03-16T19:15:07.171Z,35.17
2019-03-16T19:17:35.488Z,35.22
2019-03-16T19:20:05.152Z,35.19
2019-03-16T19:22:33.172Z,35.26
2019-03-16T19:25:02.263Z,35.25
2019-03-16T19:27:30.169Z,35.20
2019-03-16T19:29:57.998Z,35.12
2019-03-16T19:32:33.748Z,34.89
2019-03-16T19:34:56.464Z,34.82
2019-03-16T19:37:25.402Z,34.91
2019-03-16T19:39:53.777Z,34.70
2019-03-16T19:42:21.679Z,34.89
2019-03-16T19:44:49.503Z,35.06
2019-03-16T19:47:17.753Z,35.18
2019-03-16T19:49:45.678Z,35.30
2019-03-16T19:52:13.140Z,35.30
2019-03-16T19:54:41.626Z,35.26
2019-03-16T19:57:16.034Z,35.31
2019-03-16T19:59:39.369Z,35.33
2019-03-16T20:02:07.104Z,35.29
2019-03-16T20:04:36.465Z,35.31
2019-03-16T20:07:04.715Z,35.43
2019-03-16T20:09:34.294Z,35.39
2019-03-16T20:12:02.168Z,35.36
2019-03-16T20:14:30.178Z,35.15
2019-03-16T20:16:59.661Z,35.14
2019-03-16T20:19:27.626Z,35.10
2019-03-16T20:21:55.530Z,34.86
2019-03-16T20:24:23.766Z,35.05
2019-03-16T20:26:52.334Z,35.39
2019-03-16T20:29:20.207Z,35.55
2019-03-16T20:31:47.956Z,35.63
2019-03-16T20:34:16.178Z,35.53
2019-03-16T20:36:43.954Z,35.61
2019-03-16T20:39:11.890Z,35.56
2019-03-16T20:41:41.247Z,35.51
2019-03-16T20:44:09.148Z,35.54
2019-03-16T20:46:37.740Z,35.75
2019-03-16T20:49:05.807Z,36.39
2019-03-16T20:51:33.649Z,35.94
2019-03-16T20:54:01.853Z,35.86
2019-03-16T20:56:30.433Z,36.07
2019-03-16T20:58:59.140Z,35.90
2019-03-16T21:01:27.275Z,36.09
2019-03-16T21:03:56.103Z,36.20
2019-03-16T21:06:25.137Z,35.89
2019-03-16T21:09:02.625Z,36.10
2019-03-16T21:11:22.981Z,36.48
2019-03-16T21:13:51.834Z,36.47
2019-03-16T21:16:20.211Z,36.40
2019-03-16T21:18:49.234Z,36.20
2019-03-16T21:21:17.241Z,35.91
2019-03-16T21:23:46.399Z,36.00
2019-03-16T21:26:14.747Z,35.79
2019-03-16T21:28:44.707Z,35.94
2019-03-16T21:31:12.691Z,36.27
2019-03-16T21:33:40.424Z,36.19
2019-03-16T21:36:08.596Z,36.08
2019-03-16T21:38:38.032Z,35.71
2019-03-16T21:41:05.925Z,35.60
2019-03-16T21:43:34.268Z,35.51
2019-03-16T21:46:02.111Z,35.97
2019-03-16T21:48:30.225Z,36.08
2019-03-16T21:50:58.309Z,36.31
2019-03-16T21:53:27.062Z,36.36
2019-03-16T21:55:54.817Z,36.02
2019-03-16T21:58:23.645Z,35.78
2019-03-16T22:00:51.710Z,35.86
2019-03-16T22:03:19.834Z,35.73
2019-03-16T22:05:48.162Z,35.70
2019-03-16T22:08:16.612Z,35.41
2019-03-16T22:10:44.556Z,35.27
2019-03-16T22:13:12.807Z,35.23
2019-03-16T22:15:40.950Z,35.08
2019-03-16T22:18:09.499Z,34.84
2019-03-16T22:20:37.248Z,35.12
2019-03-16T22:23:06.501Z,35.11
2019-03-16T22:25:34.940Z,35.05
2019-03-16T22:28:03.420Z,34.89
2019-03-16T22:30:32.108Z,35.13
2019-03-16T22:33:00.255Z,35.14
2019-03-16T22:35:28.756Z,35.04
2019-03-16T22:37:56.686Z,34.70
2019-03-16T22:40:24.689Z,34.42
2019-03-16T22:42:52.761Z,34.48
2019-03-16T22:45:20.597Z,34.47
2019-03-16T22:47:48.577Z,34.44
2019-03-16T22:50:16.844Z,34.51
2019-03-16T22:52:45.728Z,34.02
2019-03-16T22:55:16.125Z,33.72
2019-03-16T22:57:44.244Z,33.43
2019-03-16T23:00:12.510Z,33.35
2019-03-16T23:02:40.754Z,33.48
2019-03-16T23:05:09.894Z,33.76
2019-03-16T23:07:38.224Z,34.66
2019-03-16T23:10:08.291Z,34.52
2019-03-16T23:12:36.615Z,34.70
2019-03-16T23:15:05.286Z,34.73
2019-03-16T23:17:33.315Z,34.06
2019-03-16T23:20:01.299Z,34.06
2019-03-16T23:22:29.576Z,34.15
2019-03-16T23:24:57.235Z,33.88
2019-03-16T23:27:25.489Z,34.26
2019-03-16T23:29:54.473Z,34.26
2019-03-16T23:32:22.359Z,33.75
2019-03-16T23:34:50.340Z,33.52
2019-03-16T23:37:18.170Z,33.83
2019-03-16T23:39:45.911Z,33.03
2019-03-16T23:42:15.076Z,33.15
2019-03-16T23:44:46.478Z,32.51
2019-03-16T23:47:15.646Z,32.69
2019-03-16T23:49:45.397Z,32.37
2019-03-16T23:52:13.204Z,33.09
2019-03-16T23:54:41.081Z,33.36
2019-03-16T23:57:08.811Z,33.46
2019-03-16T23:59:36.573Z,33.35
